sensor_id;sensor_type;location;lat;lon;timestamp;P1;durP1;ratioP1;P2;durP2;ratioP2
57573;SDS011;68988;49.000;21.242;2023-04-06T00:00:45;1.15;;;1.15;;
57573;SDS011;68988;49.000;21.242;2023-04-06T00:03:10;1.42;;;1.33;;
57573;SDS011;68988;49.000;21.242;2023-04-06T00:05:35;1.27;;;1.17;;
57573;SDS011;68988;49.000;21.242;2023-04-06T00:08:01;1.10;;;0.98;;
57573;SDS011;68988;49.000;21.242;2023-04-06T00:10:26;1.25;;;1.17;;
57573;SDS011;68988;49.000;21.242;2023-04-06T00:12:52;1.35;;;1.13;;
57573;SDS011;68988;49.000;21.242;2023-04-06T00:15:18;1.38;;;1.00;;
57573;SDS011;68988;49.000;21.242;2023-04-06T00:17:44;0.90;;;0.90;;
57573;SDS011;68988;49.000;21.242;2023-04-06T00:20:10;1.08;;;1.08;;
57573;SDS011;68988;49.000;21.242;2023-04-06T00:22:35;1.13;;;1.10;;
57573;SDS011;68988;49.000;21.242;2023-04-06T00:25:01;1.13;;;1.08;;
57573;SDS011;68988;49.000;21.242;2023-04-06T00:27:26;1.02;;;1.02;;
57573;SDS011;68988;49.000;21.242;2023-04-06T00:29:52;1.10;;;1.10;;
57573;SDS011;68988;49.000;21.242;2023-04-06T00:32:17;1.08;;;1.08;;
57573;SDS011;68988;49.000;21.242;2023-04-06T00:34:42;1.00;;;1.00;;
57573;SDS011;68988;49.000;21.242;2023-04-06T00:37:08;1.20;;;1.02;;
57573;SDS011;68988;49.000;21.242;2023-04-06T00:39:33;1.20;;;1.20;;
57573;SDS011;68988;49.000;21.242;2023-04-06T00:41:59;1.13;;;1.13;;
57573;SDS011;68988;49.000;21.242;2023-04-06T00:44:25;0.98;;;0.98;;
57573;SDS011;68988;49.000;21.242;2023-04-06T00:46:50;1.02;;;1.02;;
57573;SDS011;68988;49.000;21.242;2023-04-06T00:49:16;1.48;;;1.38;;
57573;SDS011;68988;49.000;21.242;2023-04-06T00:51:42;0.93;;;0.93;;
57573;SDS011;68988;49.000;21.242;2023-04-06T00:54:07;1.00;;;0.98;;
57573;SDS011;68988;49.000;21.242;2023-04-06T00:56:32;1.00;;;1.00;;
57573;SDS011;68988;49.000;21.242;2023-04-06T00:58:58;1.30;;;1.30;;
57573;SDS011;68988;49.000;21.242;2023-04-06T01:01:24;2.65;;;1.17;;
57573;SDS011;68988;49.000;21.242;2023-04-06T01:03:50;1.33;;;1.23;;
57573;SDS011;68988;49.000;21.242;2023-04-06T01:06:16;3.22;;;0.90;;
57573;SDS011;68988;49.000;21.242;2023-04-06T01:08:41;1.20;;;1.10;;
57573;SDS011;68988;49.000;21.242;2023-04-06T01:11:07;1.08;;;1.02;;
57573;SDS011;68988;49.000;21.242;2023-04-06T01:13:32;1.05;;;1.05;;
57573;SDS011;68988;49.000;21.242;2023-04-06T01:15:57;1.00;;;1.00;;
57573;SDS011;68988;49.000;21.242;2023-04-06T01:18:26;1.38;;;1.17;;
57573;SDS011;68988;49.000;21.242;2023-04-06T01:20:52;1.20;;;1.10;;
57573;SDS011;68988;49.000;21.242;2023-04-06T01:23:18;1.38;;;1.20;;
57573;SDS011;68988;49.000;21.242;2023-04-06T01:25:43;1.20;;;1.20;;
57573;SDS011;68988;49.000;21.242;2023-04-06T01:28:09;1.15;;;1.02;;
57573;SDS011;68988;49.000;21.242;2023-04-06T01:30:34;1.02;;;1.00;;
57573;SDS011;68988;49.000;21.242;2023-04-06T01:33:00;1.10;;;1.10;;
57573;SDS011;68988;49.000;21.242;2023-04-06T01:35:26;0.98;;;0.98;;
57573;SDS011;68988;49.000;21.242;2023-04-06T01:37:52;1.13;;;1.02;;
57573;SDS011;68988;49.000;21.242;2023-04-06T01:40:17;1.40;;;1.30;;
57573;SDS011;68988;49.000;21.242;2023-04-06T01:42:43;1.30;;;1.30;;
57573;SDS011;68988;49.000;21.242;2023-04-06T01:45:08;1.00;;;1.00;;
57573;SDS011;68988;49.000;21.242;2023-04-06T01:47:34;0.80;;;0.80;;
57573;SDS011;68988;49.000;21.242;2023-04-06T01:49:59;1.13;;;1.13;;
57573;SDS011;68988;49.000;21.242;2023-04-06T01:52:25;1.40;;;1.30;;
57573;SDS011;68988;49.000;21.242;2023-04-06T01:54:50;1.05;;;1.05;;
57573;SDS011;68988;49.000;21.242;2023-04-06T01:57:16;1.20;;;1.20;;
57573;SDS011;68988;49.000;21.242;2023-04-06T01:59:41;1.00;;;1.00;;
57573;SDS011;68988;49.000;21.242;2023-04-06T02:02:06;1.25;;;1.20;;
57573;SDS011;68988;49.000;21.242;2023-04-06T02:04:32;1.08;;;1.08;;
57573;SDS011;68988;49.000;21.242;2023-04-06T02:06:57;0.98;;;0.98;;
57573;SDS011;68988;49.000;21.242;2023-04-06T02:09:22;1.20;;;1.10;;
57573;SDS011;68988;49.000;21.242;2023-04-06T02:11:48;1.00;;;1.00;;
57573;SDS011;68988;49.000;21.242;2023-04-06T02:14:13;0.93;;;0.93;;
57573;SDS011;68988;49.000;21.242;2023-04-06T02:16:40;1.00;;;1.00;;
57573;SDS011;68988;49.000;21.242;2023-04-06T02:19:05;1.20;;;1.10;;
57573;SDS011;68988;49.000;21.242;2023-04-06T02:21:30;0.85;;;0.85;;
57573;SDS011;68988;49.000;21.242;2023-04-06T02:23:56;0.80;;;0.80;;
57573;SDS011;68988;49.000;21.242;2023-04-06T02:26:21;1.38;;;1.05;;
57573;SDS011;68988;49.000;21.242;2023-04-06T02:28:47;1.08;;;1.08;;
57573;SDS011;68988;49.000;21.242;2023-04-06T02:31:12;1.15;;;1.15;;
57573;SDS011;68988;49.000;21.242;2023-04-06T02:33:39;1.00;;;1.00;;
57573;SDS011;68988;49.000;21.242;2023-04-06T02:36:05;1.02;;;1.02;;
57573;SDS011;68988;49.000;21.242;2023-04-06T02:38:30;1.38;;;1.27;;
57573;SDS011;68988;49.000;21.242;2023-04-06T02:40:56;1.02;;;1.02;;
57573;SDS011;68988;49.000;21.242;2023-04-06T02:43:21;1.23;;;1.23;;
57573;SDS011;68988;49.000;21.242;2023-04-06T02:45:46;4.93;;;1.10;;
57573;SDS011;68988;49.000;21.242;2023-04-06T02:48:12;1.10;;;1.10;;
57573;SDS011;68988;49.000;21.242;2023-04-06T02:50:37;0.90;;;0.90;;
57573;SDS011;68988;49.000;21.242;2023-04-06T02:53:02;1.02;;;1.02;;
57573;SDS011;68988;49.000;21.242;2023-04-06T02:55:28;0.98;;;0.98;;
57573;SDS011;68988;49.000;21.242;2023-04-06T02:57:53;1.15;;;1.00;;
57573;SDS011;68988;49.000;21.242;2023-04-06T03:00:19;0.95;;;0.95;;
57573;SDS011;68988;49.000;21.242;2023-04-06T03:02:44;0.93;;;0.93;;
57573;SDS011;68988;49.000;21.242;2023-04-06T03:05:10;1.00;;;1.00;;
57573;SDS011;68988;49.000;21.242;2023-04-06T03:07:35;1.05;;;0.95;;
57573;SDS011;68988;49.000;21.242;2023-04-06T03:10:00;1.15;;;1.15;;
57573;SDS011;68988;49.000;21.242;2023-04-06T03:12:26;1.25;;;1.20;;
57573;SDS011;68988;49.000;21.242;2023-04-06T03:14:51;1.50;;;1.15;;
57573;SDS011;68988;49.000;21.242;2023-04-06T03:17:16;0.90;;;0.90;;
57573;SDS011;68988;49.000;21.242;2023-04-06T03:19:42;0.80;;;0.80;;
57573;SDS011;68988;49.000;21.242;2023-04-06T03:22:07;0.90;;;0.90;;
57573;SDS011;68988;49.000;21.242;2023-04-06T03:24:33;0.77;;;0.77;;
57573;SDS011;68988;49.000;21.242;2023-04-06T03:26:58;1.60;;;1.17;;
57573;SDS011;68988;49.000;21.242;2023-04-06T03:29:23;0.90;;;0.90;;
57573;SDS011;68988;49.000;21.242;2023-04-06T03:31:49;1.05;;;1.05;;
57573;SDS011;68988;49.000;21.242;2023-04-06T03:34:14;1.00;;;1.00;;
57573;SDS011;68988;49.000;21.242;2023-04-06T03:36:40;0.90;;;0.90;;
57573;SDS011;68988;49.000;21.242;2023-04-06T03:39:05;1.08;;;1.08;;
57573;SDS011;68988;49.000;21.242;2023-04-06T03:41:31;1.00;;;1.00;;
57573;SDS011;68988;49.000;21.242;2023-04-06T03:43:56;0.90;;;0.90;;
57573;SDS011;68988;49.000;21.242;2023-04-06T03:46:22;1.02;;;1.02;;
57573;SDS011;68988;49.000;21.242;2023-04-06T03:48:48;1.10;;;1.00;;
57573;SDS011;68988;49.000;21.242;2023-04-06T03:51:13;1.20;;;1.10;;
57573;SDS011;68988;49.000;21.242;2023-04-06T03:53:39;1.00;;;1.00;;
57573;SDS011;68988;49.000;21.242;2023-04-06T03:56:04;1.08;;;0.98;;
57573;SDS011;68988;49.000;21.242;2023-04-06T03:58:30;1.05;;;1.02;;
57573;SDS011;68988;49.000;21.242;2023-04-06T04:00:56;1.02;;;1.02;;
57573;SDS011;68988;49.000;21.242;2023-04-06T04:03:21;1.00;;;1.00;;
57573;SDS011;68988;49.000;21.242;2023-04-06T04:05:48;1.05;;;1.05;;
57573;SDS011;68988;49.000;21.242;2023-04-06T04:08:15;0.93;;;0.93;;
57573;SDS011;68988;49.000;21.242;2023-04-06T04:10:40;1.00;;;1.00;;
57573;SDS011;68988;49.000;21.242;2023-04-06T04:13:05;0.88;;;0.88;;
57573;SDS011;68988;49.000;21.242;2023-04-06T04:15:31;0.90;;;0.90;;
57573;SDS011;68988;49.000;21.242;2023-04-06T04:17:56;1.02;;;1.02;;
57573;SDS011;68988;49.000;21.242;2023-04-06T04:20:21;1.13;;;1.10;;
57573;SDS011;68988;49.000;21.242;2023-04-06T04:22:47;1.02;;;1.02;;
57573;SDS011;68988;49.000;21.242;2023-04-06T04:25:12;1.10;;;1.00;;
57573;SDS011;68988;49.000;21.242;2023-04-06T04:27:38;0.77;;;0.77;;
57573;SDS011;68988;49.000;21.242;2023-04-06T04:30:05;0.77;;;0.77;;
57573;SDS011;68988;49.000;21.242;2023-04-06T04:32:31;0.98;;;0.98;;
57573;SDS011;68988;49.000;21.242;2023-04-06T04:34:56;1.10;;;1.10;;
57573;SDS011;68988;49.000;21.242;2023-04-06T04:37:22;0.90;;;0.90;;
57573;SDS011;68988;49.000;21.242;2023-04-06T04:39:47;0.90;;;0.90;;
57573;SDS011;68988;49.000;21.242;2023-04-06T04:42:13;0.82;;;0.80;;
57573;SDS011;68988;49.000;21.242;2023-04-06T04:44:38;1.02;;;1.00;;
57573;SDS011;68988;49.000;21.242;2023-04-06T04:47:04;1.20;;;1.10;;
57573;SDS011;68988;49.000;21.242;2023-04-06T04:49:30;1.02;;;1.02;;
57573;SDS011;68988;49.000;21.242;2023-04-06T04:51:55;0.75;;;0.75;;
57573;SDS011;68988;49.000;21.242;2023-04-06T04:54:20;0.80;;;0.80;;
57573;SDS011;68988;49.000;21.242;2023-04-06T04:56:46;2.00;;;1.10;;
57573;SDS011;68988;49.000;21.242;2023-04-06T04:59:11;1.00;;;1.00;;
57573;SDS011;68988;49.000;21.242;2023-04-06T05:01:36;0.80;;;0.80;;
57573;SDS011;68988;49.000;21.242;2023-04-06T05:04:02;1.70;;;0.93;;
57573;SDS011;68988;49.000;21.242;2023-04-06T05:06:27;0.73;;;0.73;;
57573;SDS011;68988;49.000;21.242;2023-04-06T05:08:53;0.80;;;0.80;;
57573;SDS011;68988;49.000;21.242;2023-04-06T05:11:18;1.00;;;0.95;;
57573;SDS011;68988;49.000;21.242;2023-04-06T05:13:43;1.00;;;1.00;;
57573;SDS011;68988;49.000;21.242;2023-04-06T05:16:09;1.15;;;0.90;;
57573;SDS011;68988;49.000;21.242;2023-04-06T05:18:34;1.00;;;1.00;;
57573;SDS011;68988;49.000;21.242;2023-04-06T05:21:00;0.93;;;0.93;;
57573;SDS011;68988;49.000;21.242;2023-04-06T05:23:25;1.00;;;1.00;;
57573;SDS011;68988;49.000;21.242;2023-04-06T05:25:51;1.08;;;0.98;;
57573;SDS011;68988;49.000;21.242;2023-04-06T05:28:16;0.80;;;0.80;;
57573;SDS011;68988;49.000;21.242;2023-04-06T05:30:43;1.00;;;1.00;;
57573;SDS011;68988;49.000;21.242;2023-04-06T05:33:10;0.82;;;0.82;;
57573;SDS011;68988;49.000;21.242;2023-04-06T05:35:36;0.82;;;0.82;;
57573;SDS011;68988;49.000;21.242;2023-04-06T05:38:01;0.70;;;0.70;;
57573;SDS011;68988;49.000;21.242;2023-04-06T05:40:27;0.70;;;0.70;;
57573;SDS011;68988;49.000;21.242;2023-04-06T05:42:52;0.80;;;0.80;;
57573;SDS011;68988;49.000;21.242;2023-04-06T05:45:18;0.98;;;0.88;;
57573;SDS011;68988;49.000;21.242;2023-04-06T05:47:45;2.55;;;1.00;;
57573;SDS011;68988;49.000;21.242;2023-04-06T05:50:11;1.17;;;1.02;;
57573;SDS011;68988;49.000;21.242;2023-04-06T05:52:37;3.38;;;1.00;;
57573;SDS011;68988;49.000;21.242;2023-04-06T05:55:02;1.10;;;1.00;;
57573;SDS011;68988;49.000;21.242;2023-04-06T05:57:28;1.10;;;1.00;;
57573;SDS011;68988;49.000;21.242;2023-04-06T05:59:54;0.98;;;0.90;;
57573;SDS011;68988;49.000;21.242;2023-04-06T06:02:20;1.02;;;1.00;;
57573;SDS011;68988;49.000;21.242;2023-04-06T06:04:46;1.30;;;1.10;;
57573;SDS011;68988;49.000;21.242;2023-04-06T06:07:11;0.95;;;0.82;;
57573;SDS011;68988;49.000;21.242;2023-04-06T06:09:37;4.75;;;0.93;;
57573;SDS011;68988;49.000;21.242;2023-04-06T06:12:02;1.77;;;0.85;;
57573;SDS011;68988;49.000;21.242;2023-04-06T06:14:28;1.15;;;1.08;;
57573;SDS011;68988;49.000;21.242;2023-04-06T06:16:53;2.03;;;1.05;;
57573;SDS011;68988;49.000;21.242;2023-04-06T06:19:19;4.47;;;1.20;;
57573;SDS011;68988;49.000;21.242;2023-04-06T06:21:44;1.25;;;0.90;;
57573;SDS011;68988;49.000;21.242;2023-04-06T06:24:10;2.80;;;1.20;;
57573;SDS011;68988;49.000;21.242;2023-04-06T06:26:35;4.75;;;1.27;;
57573;SDS011;68988;49.000;21.242;2023-04-06T06:29:02;1.45;;;1.13;;
57573;SDS011;68988;49.000;21.242;2023-04-06T06:31:28;3.10;;;1.10;;
57573;SDS011;68988;49.000;21.242;2023-04-06T06:33:53;1.33;;;1.23;;
57573;SDS011;68988;49.000;21.242;2023-04-06T06:36:19;3.33;;;1.13;;
57573;SDS011;68988;49.000;21.242;2023-04-06T06:38:44;1.70;;;1.08;;
57573;SDS011;68988;49.000;21.242;2023-04-06T06:41:10;3.72;;;0.90;;
57573;SDS011;68988;49.000;21.242;2023-04-06T06:43:35;2.15;;;1.20;;
57573;SDS011;68988;49.000;21.242;2023-04-06T06:46:01;1.27;;;1.10;;
57573;SDS011;68988;49.000;21.242;2023-04-06T06:48:27;1.52;;;1.10;;
57573;SDS011;68988;49.000;21.242;2023-04-06T06:50:52;3.20;;;0.95;;
57573;SDS011;68988;49.000;21.242;2023-04-06T06:53:17;3.10;;;1.33;;
57573;SDS011;68988;49.000;21.242;2023-04-06T06:55:43;1.15;;;1.00;;
57573;SDS011;68988;49.000;21.242;2023-04-06T06:58:11;1.52;;;1.40;;
57573;SDS011;68988;49.000;21.242;2023-04-06T07:00:36;3.17;;;1.20;;
57573;SDS011;68988;49.000;21.242;2023-04-06T07:03:02;0.93;;;0.77;;
57573;SDS011;68988;49.000;21.242;2023-04-06T07:05:27;1.80;;;1.10;;
57573;SDS011;68988;49.000;21.242;2023-04-06T07:07:53;1.73;;;1.10;;
57573;SDS011;68988;49.000;21.242;2023-04-06T07:10:19;1.70;;;0.98;;
57573;SDS011;68988;49.000;21.242;2023-04-06T07:12:45;2.40;;;1.25;;
57573;SDS011;68988;49.000;21.242;2023-04-06T07:15:11;4.97;;;1.08;;
57573;SDS011;68988;49.000;21.242;2023-04-06T07:17:36;2.35;;;1.10;;
57573;SDS011;68988;49.000;21.242;2023-04-06T07:20:01;4.57;;;1.30;;
57573;SDS011;68988;49.000;21.242;2023-04-06T07:22:27;3.30;;;1.60;;
57573;SDS011;68988;49.000;21.242;2023-04-06T07:24:53;3.30;;;1.42;;
57573;SDS011;68988;49.000;21.242;2023-04-06T07:27:18;7.05;;;1.20;;
57573;SDS011;68988;49.000;21.242;2023-04-06T07:29:44;5.97;;;1.33;;
57573;SDS011;68988;49.000;21.242;2023-04-06T07:32:09;4.97;;;1.33;;
57573;SDS011;68988;49.000;21.242;2023-04-06T07:34:35;4.20;;;0.98;;
57573;SDS011;68988;49.000;21.242;2023-04-06T07:37:00;2.45;;;1.35;;
57573;SDS011;68988;49.000;21.242;2023-04-06T07:39:26;4.38;;;1.30;;
57573;SDS011;68988;49.000;21.242;2023-04-06T07:41:52;6.97;;;1.52;;
57573;SDS011;68988;49.000;21.242;2023-04-06T07:44:17;4.18;;;1.52;;
57573;SDS011;68988;49.000;21.242;2023-04-06T07:46:43;4.65;;;1.35;;
57573;SDS011;68988;49.000;21.242;2023-04-06T07:49:08;2.53;;;1.10;;
57573;SDS011;68988;49.000;21.242;2023-04-06T07:51:37;5.15;;;1.50;;
57573;SDS011;68988;49.000;21.242;2023-04-06T07:54:03;4.35;;;1.40;;
57573;SDS011;68988;49.000;21.242;2023-04-06T07:56:29;3.95;;;1.30;;
57573;SDS011;68988;49.000;21.242;2023-04-06T07:58:54;1.48;;;1.13;;
57573;SDS011;68988;49.000;21.242;2023-04-06T08:01:22;4.78;;;1.23;;
57573;SDS011;68988;49.000;21.242;2023-04-06T08:03:47;5.32;;;1.50;;
57573;SDS011;68988;49.000;21.242;2023-04-06T08:06:14;3.33;;;1.30;;
57573;SDS011;68988;49.000;21.242;2023-04-06T08:08:39;12.07;;;1.63;;
57573;SDS011;68988;49.000;21.242;2023-04-06T08:11:05;2.47;;;1.27;;
57573;SDS011;68988;49.000;21.242;2023-04-06T08:13:30;4.53;;;1.30;;
57573;SDS011;68988;49.000;21.242;2023-04-06T08:15:55;5.03;;;1.42;;
57573;SDS011;68988;49.000;21.242;2023-04-06T08:18:21;6.38;;;1.50;;
57573;SDS011;68988;49.000;21.242;2023-04-06T08:20:47;8.18;;;1.63;;
57573;SDS011;68988;49.000;21.242;2023-04-06T08:23:14;4.00;;;1.63;;
57573;SDS011;68988;49.000;21.242;2023-04-06T08:25:40;6.25;;;1.90;;
57573;SDS011;68988;49.000;21.242;2023-04-06T08:28:07;7.82;;;2.33;;
57573;SDS011;68988;49.000;21.242;2023-04-06T08:30:33;5.57;;;2.10;;
57573;SDS011;68988;49.000;21.242;2023-04-06T08:32:59;11.57;;;2.05;;
57573;SDS011;68988;49.000;21.242;2023-04-06T08:35:25;6.10;;;1.90;;
57573;SDS011;68988;49.000;21.242;2023-04-06T08:37:51;3.45;;;1.75;;
57573;SDS011;68988;49.000;21.242;2023-04-06T08:40:16;5.43;;;1.80;;
57573;SDS011;68988;49.000;21.242;2023-04-06T08:42:44;5.53;;;1.90;;
57573;SDS011;68988;49.000;21.242;2023-04-06T08:45:12;5.20;;;1.70;;
57573;SDS011;68988;49.000;21.242;2023-04-06T08:47:39;5.20;;;1.77;;
57573;SDS011;68988;49.000;21.242;2023-04-06T08:50:05;5.38;;;2.10;;
57573;SDS011;68988;49.000;21.242;2023-04-06T08:52:31;5.88;;;1.67;;
57573;SDS011;68988;49.000;21.242;2023-04-06T08:54:58;3.45;;;1.83;;
57573;SDS011;68988;49.000;21.242;2023-04-06T08:57:24;8.38;;;1.80;;
57573;SDS011;68988;49.000;21.242;2023-04-06T08:59:50;10.43;;;2.00;;
57573;SDS011;68988;49.000;21.242;2023-04-06T09:02:17;8.25;;;1.70;;
57573;SDS011;68988;49.000;21.242;2023-04-06T09:04:52;7.50;;;2.40;;
57573;SDS011;68988;49.000;21.242;2023-04-06T09:07:18;5.10;;;2.15;;
57573;SDS011;68988;49.000;21.242;2023-04-06T09:09:43;7.25;;;1.77;;
57573;SDS011;68988;49.000;21.242;2023-04-06T09:12:28;10.35;;;2.10;;
57573;SDS011;68988;49.000;21.242;2023-04-06T09:14:55;4.38;;;1.73;;
57573;SDS011;68988;49.000;21.242;2023-04-06T09:19:48;4.85;;;2.03;;
57573;SDS011;68988;49.000;21.242;2023-04-06T09:22:14;5.30;;;1.80;;
57573;SDS011;68988;49.000;21.242;2023-04-06T09:24:46;7.15;;;2.20;;
57573;SDS011;68988;49.000;21.242;2023-04-06T09:27:16;7.63;;;1.73;;
57573;SDS011;68988;49.000;21.242;2023-04-06T09:29:44;3.97;;;2.10;;
57573;SDS011;68988;49.000;21.242;2023-04-06T09:32:10;5.97;;;1.77;;
57573;SDS011;68988;49.000;21.242;2023-04-06T09:34:37;6.15;;;1.77;;
57573;SDS011;68988;49.000;21.242;2023-04-06T09:37:13;6.07;;;2.00;;
57573;SDS011;68988;49.000;21.242;2023-04-06T09:39:39;12.75;;;1.88;;
57573;SDS011;68988;49.000;21.242;2023-04-06T09:42:04;4.35;;;2.10;;
57573;SDS011;68988;49.000;21.242;2023-04-06T09:44:30;7.55;;;2.10;;
57573;SDS011;68988;49.000;21.242;2023-04-06T09:46:55;6.78;;;1.80;;
57573;SDS011;68988;49.000;21.242;2023-04-06T09:49:21;8.52;;;1.58;;
57573;SDS011;68988;49.000;21.242;2023-04-06T09:51:53;8.55;;;2.30;;
57573;SDS011;68988;49.000;21.242;2023-04-06T09:54:21;2.85;;;1.80;;
57573;SDS011;68988;49.000;21.242;2023-04-06T09:59:13;5.15;;;1.85;;
57573;SDS011;68988;49.000;21.242;2023-04-06T10:01:56;4.03;;;1.85;;
57573;SDS011;68988;49.000;21.242;2023-04-06T10:07:04;3.42;;;1.90;;
57573;SDS011;68988;49.000;21.242;2023-04-06T10:09:31;7.38;;;2.10;;
57573;SDS011;68988;49.000;21.242;2023-04-06T10:12:10;6.10;;;1.80;;
57573;SDS011;68988;49.000;21.242;2023-04-06T10:14:36;8.75;;;2.00;;
57573;SDS011;68988;49.000;21.242;2023-04-06T10:17:03;3.60;;;1.80;;
57573;SDS011;68988;49.000;21.242;2023-04-06T10:19:33;4.18;;;2.20;;
57573;SDS011;68988;49.000;21.242;2023-04-06T10:22:05;7.18;;;1.75;;
57573;SDS011;68988;49.000;21.242;2023-04-06T10:24:33;3.88;;;2.30;;
57573;SDS011;68988;49.000;21.242;2023-04-06T10:27:03;6.68;;;1.85;;
57573;SDS011;68988;49.000;21.242;2023-04-06T10:29:44;7.05;;;2.20;;
57573;SDS011;68988;49.000;21.242;2023-04-06T10:32:11;3.78;;;1.85;;
57573;SDS011;68988;49.000;21.242;2023-04-06T10:34:37;4.13;;;1.48;;
57573;SDS011;68988;49.000;21.242;2023-04-06T10:37:15;6.68;;;2.13;;
57573;SDS011;68988;49.000;21.242;2023-04-06T10:39:49;6.50;;;2.08;;
57573;SDS011;68988;49.000;21.242;2023-04-06T10:42:25;11.18;;;2.45;;
57573;SDS011;68988;49.000;21.242;2023-04-06T10:45:01;2.67;;;2.03;;
57573;SDS011;68988;49.000;21.242;2023-04-06T10:47:38;7.25;;;2.08;;
57573;SDS011;68988;49.000;21.242;2023-04-06T10:50:05;6.05;;;2.20;;
57573;SDS011;68988;49.000;21.242;2023-04-06T10:52:31;4.57;;;1.88;;
57573;SDS011;68988;49.000;21.242;2023-04-06T10:54:56;4.50;;;2.05;;
57573;SDS011;68988;49.000;21.242;2023-04-06T10:57:28;5.40;;;2.17;;
57573;SDS011;68988;49.000;21.242;2023-04-06T10:59:55;6.60;;;2.42;;
57573;SDS011;68988;49.000;21.242;2023-04-06T11:02:21;8.15;;;2.08;;
57573;SDS011;68988;49.000;21.242;2023-04-06T11:04:56;11.00;;;2.30;;
57573;SDS011;68988;49.000;21.242;2023-04-06T11:07:22;8.40;;;2.00;;
57573;SDS011;68988;49.000;21.242;2023-04-06T11:09:49;6.30;;;2.03;;
57573;SDS011;68988;49.000;21.242;2023-04-06T11:12:27;5.38;;;1.85;;
57573;SDS011;68988;49.000;21.242;2023-04-06T11:14:58;9.77;;;2.30;;
57573;SDS011;68988;49.000;21.242;2023-04-06T11:17:35;6.47;;;1.85;;
57573;SDS011;68988;49.000;21.242;2023-04-06T11:20:02;2.83;;;2.10;;
57573;SDS011;68988;49.000;21.242;2023-04-06T11:22:30;11.40;;;2.92;;
57573;SDS011;68988;49.000;21.242;2023-04-06T11:25:05;9.00;;;2.47;;
57573;SDS011;68988;49.000;21.242;2023-04-06T11:27:31;7.60;;;2.47;;
57573;SDS011;68988;49.000;21.242;2023-04-06T11:30:01;9.32;;;2.35;;
57573;SDS011;68988;49.000;21.242;2023-04-06T11:32:27;5.47;;;2.55;;
57573;SDS011;68988;49.000;21.242;2023-04-06T11:34:53;8.55;;;2.42;;
57573;SDS011;68988;49.000;21.242;2023-04-06T11:37:19;8.20;;;2.33;;
57573;SDS011;68988;49.000;21.242;2023-04-06T11:39:51;3.33;;;2.58;;
57573;SDS011;68988;49.000;21.242;2023-04-06T11:42:23;5.70;;;2.33;;
57573;SDS011;68988;49.000;21.242;2023-04-06T11:44:59;8.57;;;2.47;;
57573;SDS011;68988;49.000;21.242;2023-04-06T11:47:28;5.82;;;2.80;;
57573;SDS011;68988;49.000;21.242;2023-04-06T11:50:08;4.35;;;2.30;;
57573;SDS011;68988;49.000;21.242;2023-04-06T11:52:41;4.65;;;2.38;;
57573;SDS011;68988;49.000;21.242;2023-04-06T11:55:18;5.43;;;1.95;;
57573;SDS011;68988;49.000;21.242;2023-04-06T11:57:44;4.68;;;2.33;;
57573;SDS011;68988;49.000;21.242;2023-04-06T12:00:10;4.82;;;2.35;;
57573;SDS011;68988;49.000;21.242;2023-04-06T12:02:39;6.05;;;2.25;;
57573;SDS011;68988;49.000;21.242;2023-04-06T12:05:05;4.00;;;2.08;;
57573;SDS011;68988;49.000;21.242;2023-04-06T12:07:32;5.03;;;2.15;;
57573;SDS011;68988;49.000;21.242;2023-04-06T12:09:58;5.00;;;2.30;;
57573;SDS011;68988;49.000;21.242;2023-04-06T12:12:24;7.25;;;2.35;;
57573;SDS011;68988;49.000;21.242;2023-04-06T12:14:50;3.50;;;2.40;;
57573;SDS011;68988;49.000;21.242;2023-04-06T12:17:15;2.33;;;1.95;;
57573;SDS011;68988;49.000;21.242;2023-04-06T12:19:41;7.15;;;2.20;;
57573;SDS011;68988;49.000;21.242;2023-04-06T12:22:06;2.90;;;2.05;;
57573;SDS011;68988;49.000;21.242;2023-04-06T12:24:32;3.58;;;2.03;;
57573;SDS011;68988;49.000;21.242;2023-04-06T12:26:57;5.65;;;2.28;;
57573;SDS011;68988;49.000;21.242;2023-04-06T12:29:24;2.63;;;2.20;;
57573;SDS011;68988;49.000;21.242;2023-04-06T12:31:49;4.57;;;2.10;;
57573;SDS011;68988;49.000;21.242;2023-04-06T12:34:16;5.00;;;2.55;;
57573;SDS011;68988;49.000;21.242;2023-04-06T12:36:41;3.88;;;2.58;;
57573;SDS011;68988;49.000;21.242;2023-04-06T12:39:07;4.03;;;2.30;;
57573;SDS011;68988;49.000;21.242;2023-04-06T12:41:32;3.05;;;1.98;;
57573;SDS011;68988;49.000;21.242;2023-04-06T12:43:58;3.80;;;2.10;;
57573;SDS011;68988;49.000;21.242;2023-04-06T12:46:24;3.58;;;1.95;;
57573;SDS011;68988;49.000;21.242;2023-04-06T12:48:50;4.70;;;1.95;;
57573;SDS011;68988;49.000;21.242;2023-04-06T12:51:18;5.50;;;2.03;;
57573;SDS011;68988;49.000;21.242;2023-04-06T12:53:43;4.15;;;2.30;;
57573;SDS011;68988;49.000;21.242;2023-04-06T12:56:13;5.53;;;2.28;;
57573;SDS011;68988;49.000;21.242;2023-04-06T12:58:40;4.88;;;2.50;;
57573;SDS011;68988;49.000;21.242;2023-04-06T13:01:06;3.15;;;2.35;;
57573;SDS011;68988;49.000;21.242;2023-04-06T13:03:33;2.70;;;2.05;;
57573;SDS011;68988;49.000;21.242;2023-04-06T13:05:59;5.07;;;2.15;;
57573;SDS011;68988;49.000;21.242;2023-04-06T13:08:25;7.97;;;2.22;;
57573;SDS011;68988;49.000;21.242;2023-04-06T13:10:51;2.05;;;1.90;;
57573;SDS011;68988;49.000;21.242;2023-04-06T13:13:17;2.75;;;1.92;;
57573;SDS011;68988;49.000;21.242;2023-04-06T13:15:48;3.67;;;2.10;;
57573;SDS011;68988;49.000;21.242;2023-04-06T13:18:15;2.22;;;2.00;;
57573;SDS011;68988;49.000;21.242;2023-04-06T13:20:41;3.10;;;2.20;;
57573;SDS011;68988;49.000;21.242;2023-04-06T13:23:07;2.70;;;2.15;;
57573;SDS011;68988;49.000;21.242;2023-04-06T13:25:32;3.42;;;2.45;;
57573;SDS011;68988;49.000;21.242;2023-04-06T13:27:58;4.15;;;2.35;;
57573;SDS011;68988;49.000;21.242;2023-04-06T13:30:24;2.42;;;2.20;;
57573;SDS011;68988;49.000;21.242;2023-04-06T13:32:49;4.10;;;2.17;;
57573;SDS011;68988;49.000;21.242;2023-04-06T13:35:15;8.90;;;2.97;;
57573;SDS011;68988;49.000;21.242;2023-04-06T13:37:41;2.70;;;2.00;;
57573;SDS011;68988;49.000;21.242;2023-04-06T13:40:07;3.35;;;2.35;;
57573;SDS011;68988;49.000;21.242;2023-04-06T13:42:33;3.20;;;1.98;;
57573;SDS011;68988;49.000;21.242;2023-04-06T13:45:00;2.55;;;2.17;;
57573;SDS011;68988;49.000;21.242;2023-04-06T13:47:25;2.30;;;2.08;;
57573;SDS011;68988;49.000;21.242;2023-04-06T13:49:51;2.75;;;1.75;;
57573;SDS011;68988;49.000;21.242;2023-04-06T13:52:18;4.28;;;2.30;;
57573;SDS011;68988;49.000;21.242;2023-04-06T13:54:44;7.75;;;2.45;;
57573;SDS011;68988;49.000;21.242;2023-04-06T13:57:10;2.85;;;2.00;;
57573;SDS011;68988;49.000;21.242;2023-04-06T13:59:35;3.00;;;2.03;;
57573;SDS011;68988;49.000;21.242;2023-04-06T14:02:05;10.02;;;2.20;;
57573;SDS011;68988;49.000;21.242;2023-04-06T14:04:31;4.72;;;1.90;;
57573;SDS011;68988;49.000;21.242;2023-04-06T14:06:59;1.83;;;1.73;;
57573;SDS011;68988;49.000;21.242;2023-04-06T14:09:25;4.25;;;2.08;;
57573;SDS011;68988;49.000;21.242;2023-04-06T14:11:51;2.65;;;2.17;;
57573;SDS011;68988;49.000;21.242;2023-04-06T14:14:16;6.15;;;2.10;;
57573;SDS011;68988;49.000;21.242;2023-04-06T14:16:42;3.90;;;2.33;;
57573;SDS011;68988;49.000;21.242;2023-04-06T14:19:09;2.50;;;1.92;;
57573;SDS011;68988;49.000;21.242;2023-04-06T14:21:37;2.55;;;1.60;;
57573;SDS011;68988;49.000;21.242;2023-04-06T14:24:06;3.08;;;2.67;;
57573;SDS011;68988;49.000;21.242;2023-04-06T14:26:33;1.92;;;1.60;;
57573;SDS011;68988;49.000;21.242;2023-04-06T14:28:58;2.47;;;2.10;;
57573;SDS011;68988;49.000;21.242;2023-04-06T14:31:25;4.53;;;2.20;;
57573;SDS011;68988;49.000;21.242;2023-04-06T14:33:51;2.15;;;1.95;;
57573;SDS011;68988;49.000;21.242;2023-04-06T14:36:17;2.22;;;1.88;;